sensor_id;sensor_type;location;lat;lon;timestamp;pressure;altitude;pressure_sealevel;temperature;humidity
11440;BME280;5776;51.814;4.510;2023-07-31T00:00:57;101046.03;;;17.17;100.00
11440;BME280;5776;51.814;4.510;2023-07-31T00:03:23;101056.22;;;17.16;100.00
11440;BME280;5776;51.814;4.510;2023-07-31T00:05:49;101054.28;;;17.17;100.00
11440;BME280;5776;51.814;4.510;2023-07-31T00:08:15;101046.34;;;17.15;100.00
11440;BME280;5776;51.814;4.510;2023-07-31T00:10:40;101041.69;;;17.16;100.00
11440;BME280;5776;51.814;4.510;2023-07-31T00:13:06;101028.78;;;17.16;100.00
11440;BME280;5776;51.814;4.510;2023-07-31T00:15:32;101038.13;;;17.15;100.00
11440;BME280;5776;51.814;4.510;2023-07-31T00:17:59;101042.81;;;17.15;100.00
11440;BME280;5776;51.814;4.510;2023-07-31T00:20:26;101043.94;;;17.14;100.00
11440;BME280;5776;51.814;4.510;2023-07-31T00:22:54;101042.81;;;17.15;100.00
11440;BME280;5776;51.814;4.510;2023-07-31T00:25:20;101042.81;;;17.15;100.00
11440;BME280;5776;51.814;4.510;2023-07-31T00:27:46;101031.03;;;17.14;100.00
11440;BME280;5776;51.814;4.510;2023-07-31T00:30:12;101036.22;;;17.16;100.00
11440;BME280;5776;51.814;4.510;2023-07-31T00:32:37;101034.56;;;17.15;100.00
11440;BME280;5776;51.814;4.510;2023-07-31T00:35:04;101030.22;;;17.14;100.00
11440;BME280;5776;51.814;4.510;2023-07-31T00:37:30;101021.19;;;17.13;100.00
11440;BME280;5776;51.814;4.510;2023-07-31T00:39:56;101024.75;;;17.14;100.00
11440;BME280;5776;51.814;4.510;2023-07-31T00:42:24;101020.38;;;17.13;100.00
11440;BME280;5776;51.814;4.510;2023-07-31T00:44:50;101035.25;;;17.12;100.00
11440;BME280;5776;51.814;4.510;2023-07-31T00:47:17;101047.81;;;17.13;100.00
11440;BME280;5776;51.814;4.510;2023-07-31T00:49:42;101028.59;;;17.13;100.00
11440;BME280;5776;51.814;4.510;2023-07-31T00:52:09;101035.25;;;17.12;100.00
11440;BME280;5776;51.814;4.510;2023-07-31T00:54:36;101031.34;;;17.13;100.00
11440;BME280;5776;51.814;4.510;2023-07-31T00:57:03;101028.59;;;17.13;100.00
11440;BME280;5776;51.814;4.510;2023-07-31T00:59:32;101029.25;;;17.10;100.00
11440;BME280;5776;51.814;4.510;2023-07-31T01:01:59;101023.28;;;17.08;100.00
11440;BME280;5776;51.814;4.510;2023-07-31T01:04:27;101030.41;;;17.09;100.00
11440;BME280;5776;51.814;4.510;2023-07-31T01:07:07;101033.16;;;17.09;100.00
11440;BME280;5776;51.814;4.510;2023-07-31T01:09:48;101028.47;;;17.09;100.00
11440;BME280;5776;51.814;4.510;2023-07-31T01:12:17;101028.78;;;17.08;100.00
11440;BME280;5776;51.814;4.510;2023-07-31T01:15:11;101025.25;;;17.07;100.00
11440;BME280;5776;51.814;4.510;2023-07-31T01:17:38;101025.59;;;17.05;100.00
11440;BME280;5776;51.814;4.510;2023-07-31T01:20:21;101018.16;;;17.06;100.00
11440;BME280;5776;51.814;4.510;2023-07-31T01:25:47;101022.00;;;17.05;100.00
11440;BME280;5776;51.814;4.510;2023-07-31T01:28:19;101020.41;;;17.04;100.00
11440;BME280;5776;51.814;4.510;2023-07-31T01:30:48;101021.22;;;17.04;100.00
11440;BME280;5776;51.814;4.510;2023-07-31T01:33:15;101008.94;;;17.02;100.00
11440;BME280;5776;51.814;4.510;2023-07-31T01:35:44;101005.88;;;17.03;100.00
11440;BME280;5776;51.814;4.510;2023-07-31T01:38:10;101015.72;;;17.04;100.00
11440;BME280;5776;51.814;4.510;2023-07-31T01:40:36;101014.13;;;17.03;100.00
11440;BME280;5776;51.814;4.510;2023-07-31T01:43:02;101001.88;;;17.01;100.00
11440;BME280;5776;51.814;4.510;2023-07-31T01:45:28;101003.81;;;17.00;100.00
11440;BME280;5776;51.814;4.510;2023-07-31T01:47:54;101009.28;;;17.00;100.00
11440;BME280;5776;51.814;4.510;2023-07-31T01:50:20;101003.47;;;17.02;100.00
11440;BME280;5776;51.814;4.510;2023-07-31T01:52:46;100997.50;;;17.00;100.00
11440;BME280;5776;51.814;4.510;2023-07-31T01:55:11;100981.69;;;16.97;100.00
11440;BME280;5776;51.814;4.510;2023-07-31T01:57:37;100987.03;;;16.93;100.00
11440;BME280;5776;51.814;4.510;2023-07-31T02:00:04;100984.75;;;16.95;100.00
11440;BME280;5776;51.814;4.510;2023-07-31T02:02:31;100974.94;;;16.94;100.00
11440;BME280;5776;51.814;4.510;2023-07-31T02:04:57;100975.25;;;16.93;100.00
11440;BME280;5776;51.814;4.510;2023-07-31T02:07:23;100968.97;;;16.92;100.00
11440;BME280;5776;51.814;4.510;2023-07-31T02:09:49;100968.97;;;16.92;100.00
11440;BME280;5776;51.814;4.510;2023-07-31T02:12:15;100963.47;;;16.92;100.00
11440;BME280;5776;51.814;4.510;2023-07-31T02:14:41;100961.88;;;16.91;100.00
11440;BME280;5776;51.814;4.510;2023-07-31T02:17:07;100962.97;;;16.90;100.00
11440;BME280;5776;51.814;4.510;2023-07-31T02:19:33;100957.03;;;16.88;100.00
11440;BME280;5776;51.814;4.510;2023-07-31T02:21:59;100951.56;;;16.88;100.00
11440;BME280;5776;51.814;4.510;2023-07-31T02:24:28;100947.19;;;16.87;100.00
11440;BME280;5776;51.814;4.510;2023-07-31T02:26:54;100954.63;;;16.87;100.00
11440;BME280;5776;51.814;4.510;2023-07-31T02:29:21;100960.91;;;16.87;100.00
11440;BME280;5776;51.814;4.510;2023-07-31T02:31:47;100953.03;;;16.86;100.00
11440;BME280;5776;51.814;4.510;2023-07-31T02:34:12;100956.22;;;16.88;100.00
11440;BME280;5776;51.814;4.510;2023-07-31T02:36:38;100955.41;;;16.87;100.00
11440;BME280;5776;51.814;4.510;2023-07-31T02:39:04;100949.13;;;16.87;100.00
11440;BME280;5776;51.814;4.510;2023-07-31T02:41:30;100945.25;;;16.88;100.00
11440;BME280;5776;51.814;4.510;2023-07-31T02:43:56;100951.06;;;16.86;100.00
11440;BME280;5776;51.814;4.510;2023-07-31T02:46:22;100954.31;;;16.88;100.00
11440;BME280;5776;51.814;4.510;2023-07-31T02:48:50;100946.25;;;16.83;100.00
11440;BME280;5776;51.814;4.510;2023-07-31T02:51:16;100945.25;;;16.88;100.00
11440;BME280;5776;51.814;4.510;2023-07-31T02:53:42;100950.28;;;16.86;100.00
11440;BME280;5776;51.814;4.510;2023-07-31T02:56:08;100942.84;;;16.86;100.00
11440;BME280;5776;51.814;4.510;2023-07-31T02:58:34;100943.16;;;16.84;100.00
11440;BME280;5776;51.814;4.510;2023-07-31T03:01:01;100926.22;;;16.82;100.00
11440;BME280;5776;51.814;4.510;2023-07-31T03:03:28;100926.22;;;16.82;100.00
11440;BME280;5776;51.814;4.510;2023-07-31T03:05:54;100923.84;;;16.81;100.00
11440;BME280;5776;51.814;4.510;2023-07-31T03:08:20;100922.69;;;16.82;100.00
11440;BME280;5776;51.814;4.510;2023-07-31T03:10:46;100917.53;;;16.80;100.00
11440;BME280;5776;51.814;4.510;2023-07-31T03:13:12;100917.88;;;16.79;100.00
11440;BME280;5776;51.814;4.510;2023-07-31T03:15:41;100907.69;;;16.79;100.00
11440;BME280;5776;51.814;4.510;2023-07-31T03:18:07;100918.16;;;16.77;100.00
11440;BME280;5776;51.814;4.510;2023-07-31T03:20:35;100914.59;;;16.77;100.00
11440;BME280;5776;51.814;4.510;2023-07-31T03:23:01;100915.13;;;16.79;100.00
11440;BME280;5776;51.814;4.510;2023-07-31T03:25:27;100917.34;;;16.77;100.00
11440;BME280;5776;51.814;4.510;2023-07-31T03:27:53;100911.72;;;16.73;100.00
11440;BME280;5776;51.814;4.510;2023-07-31T03:30:19;100914.13;;;16.75;100.00
11440;BME280;5776;51.814;4.510;2023-07-31T03:32:45;100905.91;;;16.75;100.00
11440;BME280;5776;51.814;4.510;2023-07-31T03:35:11;100905.44;;;16.73;100.00
11440;BME280;5776;51.814;4.510;2023-07-31T03:37:37;100907.69;;;16.71;100.00
11440;BME280;5776;51.814;4.510;2023-07-31T03:40:04;100897.84;;;16.70;100.00
11440;BME280;5776;51.814;4.510;2023-07-31T03:42:30;100899.00;;;16.69;100.00
11440;BME280;5776;51.814;4.510;2023-07-31T03:44:56;100898.19;;;16.68;100.00
11440;BME280;5776;51.814;4.510;2023-07-31T03:47:22;100898.81;;;16.65;100.00
11440;BME280;5776;51.814;4.510;2023-07-31T03:49:48;100886.25;;;16.64;100.00
11440;BME280;5776;51.814;4.510;2023-07-31T03:52:15;100882.72;;;16.63;100.00
11440;BME280;5776;51.814;4.510;2023-07-31T03:54:41;100877.56;;;16.62;100.00
11440;BME280;5776;51.814;4.510;2023-07-31T03:57:07;100872.88;;;16.62;100.00
11440;BME280;5776;51.814;4.510;2023-07-31T03:59:33;100873.53;;;16.59;100.00
11440;BME280;5776;51.814;4.510;2023-07-31T04:02:01;100865.16;;;16.56;100.00
11440;BME280;5776;51.814;4.510;2023-07-31T04:04:27;100865.97;;;16.56;100.00
11440;BME280;5776;51.814;4.510;2023-07-31T04:06:54;100868.22;;;16.54;100.00
11440;BME280;5776;51.814;4.510;2023-07-31T04:09:20;100863.41;;;16.51;100.00
11440;BME280;5776;51.814;4.510;2023-07-31T04:11:46;100857.25;;;16.54;100.00
11440;BME280;5776;51.814;4.510;2023-07-31T04:14:11;100865.34;;;16.51;100.00
11440;BME280;5776;51.814;4.510;2023-07-31T04:16:38;100848.91;;;16.51;100.00
11440;BME280;5776;51.814;4.510;2023-07-31T04:19:04;100844.88;;;16.48;100.00
11440;BME280;5776;51.814;4.510;2023-07-31T04:21:30;100846.81;;;16.48;100.00
11440;BME280;5776;51.814;4.510;2023-07-31T04:23:56;100841.66;;;16.46;100.00
11440;BME280;5776;51.814;4.510;2023-07-31T04:26:24;100846.34;;;16.46;100.00
11440;BME280;5776;51.814;4.510;2023-07-31T04:28:51;100832.94;;;16.44;100.00
11440;BME280;5776;51.814;4.510;2023-07-31T04:31:19;100830.22;;;16.44;100.00
11440;BME280;5776;51.814;4.510;2023-07-31T04:33:44;100835.69;;;16.44;100.00
11440;BME280;5776;51.814;4.510;2023-07-31T04:36:10;100829.72;;;16.42;100.00
11440;BME280;5776;51.814;4.510;2023-07-31T04:38:37;100822.66;;;16.41;100.00
11440;BME280;5776;51.814;4.510;2023-07-31T04:41:03;100824.09;;;16.38;100.00
11440;BME280;5776;51.814;4.510;2023-07-31T04:43:31;100825.03;;;16.42;100.00
11440;BME280;5776;51.814;4.510;2023-07-31T04:45:57;100820.38;;;16.43;100.00
11440;BME280;5776;51.814;4.510;2023-07-31T04:48:25;100813.28;;;16.42;100.00
11440;BME280;5776;51.814;4.510;2023-07-31T04:50:51;100816.81;;;16.42;100.00
11440;BME280;5776;51.814;4.510;2023-07-31T04:53:18;100810.88;;;16.40;100.00
11440;BME280;5776;51.814;4.510;2023-07-31T04:55:45;100817.16;;;16.41;100.00
11440;BME280;5776;51.814;4.510;2023-07-31T04:58:11;100808.47;;;16.39;100.00
11440;BME280;5776;51.814;4.510;2023-07-31T05:00:37;100809.59;;;16.38;100.00
11440;BME280;5776;51.814;4.510;2023-07-31T05:03:04;100803.78;;;16.39;100.00
11440;BME280;5776;51.814;4.510;2023-07-31T05:05:30;100797.00;;;16.37;100.00
11440;BME280;5776;51.814;4.510;2023-07-31T05:07:56;100795.06;;;16.37;100.00
11440;BME280;5776;51.814;4.510;2023-07-31T05:10:22;100804.75;;;16.35;100.00
11440;BME280;5776;51.814;4.510;2023-07-31T05:12:48;100793.47;;;16.36;100.00
11440;BME280;5776;51.814;4.510;2023-07-31T05:15:13;100791.06;;;16.35;100.00
11440;BME280;5776;51.814;4.510;2023-07-31T05:17:39;100794.63;;;16.35;100.00
11440;BME280;5776;51.814;4.510;2023-07-31T05:20:05;100788.78;;;16.37;100.00
11440;BME280;5776;51.814;4.510;2023-07-31T05:22:32;100788.31;;;16.35;100.00
11440;BME280;5776;51.814;4.510;2023-07-31T05:24:59;100787.19;;;16.36;100.00
11440;BME280;5776;51.814;4.510;2023-07-31T05:27:25;100789.13;;;16.35;100.00
11440;BME280;5776;51.814;4.510;2023-07-31T05:29:54;100773.00;;;16.34;100.00
11440;BME280;5776;51.814;4.510;2023-07-31T05:32:22;100774.59;;;16.35;100.00
11440;BME280;5776;51.814;4.510;2023-07-31T05:34:51;100775.44;;;16.35;100.00
11440;BME280;5776;51.814;4.510;2023-07-31T05:37:17;100768.69;;;16.33;100.00
11440;BME280;5776;51.814;4.510;2023-07-31T05:39:43;100774.94;;;16.33;100.00
11440;BME280;5776;51.814;4.510;2023-07-31T05:42:11;100776.06;;;16.32;100.00
11440;BME280;5776;51.814;4.510;2023-07-31T05:44:37;100769.47;;;16.33;100.00
11440;BME280;5776;51.814;4.510;2023-07-31T05:47:05;100779.63;;;16.33;100.00
11440;BME280;5776;51.814;4.510;2023-07-31T05:49:40;100771.41;;;16.33;100.00
11440;BME280;5776;51.814;4.510;2023-07-31T05:52:10;100767.53;;;16.34;100.00
11440;BME280;5776;51.814;4.510;2023-07-31T05:54:35;100764.47;;;16.35;100.00
11440;BME280;5776;51.814;4.510;2023-07-31T05:57:02;100765.59;;;16.34;100.00
11440;BME280;5776;51.814;4.510;2023-07-31T05:59:29;100760.28;;;16.38;100.00
11440;BME280;5776;51.814;4.510;2023-07-31T06:01:59;100763.66;;;16.35;100.00
11440;BME280;5776;51.814;4.510;2023-07-31T06:04:25;100762.84;;;16.34;100.00
11440;BME280;5776;51.814;4.510;2023-07-31T06:06:53;100764.13;;;16.37;100.00
11440;BME280;5776;51.814;4.510;2023-07-31T06:09:19;100754.16;;;16.32;100.00
11440;BME280;5776;51.814;4.510;2023-07-31T06:11:45;100755.09;;;16.36;100.00
11440;BME280;5776;51.814;4.510;2023-07-31T06:14:13;100753.50;;;16.35;100.00
11440;BME280;5776;51.814;4.510;2023-07-31T06:16:39;100757.84;;;16.36;100.00
11440;BME280;5776;51.814;4.510;2023-07-31T06:19:05;100742.56;;;16.35;100.00
11440;BME280;5776;51.814;4.510;2023-07-31T06:21:35;100759.31;;;16.34;100.00
11440;BME280;5776;51.814;4.510;2023-07-31T06:24:05;100753.50;;;16.35;100.00
11440;BME280;5776;51.814;4.510;2023-07-31T06:26:33;100741.72;;;16.35;100.00
11440;BME280;5776;51.814;4.510;2023-07-31T06:29:02;100746.69;;;16.41;100.00
11440;BME280;5776;51.814;4.510;2023-07-31T06:31:31;100737.34;;;16.42;100.00
11440;BME280;5776;51.814;4.510;2023-07-31T06:33:57;100733.78;;;16.42;100.00
11440;BME280;5776;51.814;4.510;2023-07-31T06:36:26;100742.81;;;16.42;100.00
11440;BME280;5776;51.814;4.510;2023-07-31T06:38:52;100734.28;;;16.44;100.00
11440;BME280;5776;51.814;4.510;2023-07-31T06:41:20;100738.97;;;16.44;100.00
11440;BME280;5776;51.814;4.510;2023-07-31T06:43:51;100735.41;;;16.43;100.00
11440;BME280;5776;51.814;4.510;2023-07-31T06:46:18;100737.34;;;16.42;100.00
11440;BME280;5776;51.814;4.510;2023-07-31T06:48:45;100730.38;;;16.45;100.00
11440;BME280;5776;51.814;4.510;2023-07-31T06:51:16;100732.00;;;16.46;100.00
11440;BME280;5776;51.814;4.510;2023-07-31T06:53:42;100716.69;;;16.45;100.00
11440;BME280;5776;51.814;4.510;2023-07-31T06:56:13;100717.81;;;16.44;100.00
11440;BME280;5776;51.814;4.510;2023-07-31T06:58:42;100716.69;;;16.45;100.00
11440;BME280;5776;51.814;4.510;2023-07-31T07:01:08;100713.63;;;16.47;100.00
11440;BME280;5776;51.814;4.510;2023-07-31T07:03:37;100713.31;;;16.48;100.00
11440;BME280;5776;51.814;4.510;2023-07-31T07:06:03;100709.41;;;16.49;100.00
11440;BME280;5776;51.814;4.510;2023-07-31T07:08:29;100710.56;;;16.48;100.00
11440;BME280;5776;51.814;4.510;2023-07-31T07:10:57;100721.19;;;16.50;100.00
11440;BME280;5776;51.814;4.510;2023-07-31T07:13:23;100711.84;;;16.51;100.00
11440;BME280;5776;51.814;4.510;2023-07-31T07:15:50;100725.19;;;16.52;100.00
11440;BME280;5776;51.814;4.510;2023-07-31T07:18:18;100715.84;;;16.53;100.00
11440;BME280;5776;51.814;4.510;2023-07-31T07:20:51;100726.81;;;16.53;100.00
11440;BME280;5776;51.814;4.510;2023-07-31T07:23:17;100717.44;;;16.54;100.00
11440;BME280;5776;51.814;4.510;2023-07-31T07:25:45;100717.13;;;16.56;100.00
11440;BME280;5776;51.814;4.510;2023-07-31T07:28:11;100718.72;;;16.57;100.00
11440;BME280;5776;51.814;4.510;2023-07-31T07:30:38;100716.78;;;16.57;100.00
11440;BME280;5776;51.814;4.510;2023-07-31T07:33:06;100720.66;;;16.56;100.00
11440;BME280;5776;51.814;4.510;2023-07-31T07:35:35;100717.94;;;16.56;100.00
11440;BME280;5776;51.814;4.510;2023-07-31T07:38:02;100717.59;;;16.58;100.00
11440;BME280;5776;51.814;4.510;2023-07-31T07:40:30;100714.50;;;16.59;100.00
11440;BME280;5776;51.814;4.510;2023-07-31T07:42:55;100722.41;;;16.61;100.00
11440;BME280;5776;51.814;4.510;2023-07-31T07:45:26;100724.38;;;16.60;100.00
11440;BME280;5776;51.814;4.510;2023-07-31T07:47:53;100718.88;;;16.60;100.00
11440;BME280;5776;51.814;4.510;2023-07-31T07:50:19;100725.97;;;16.61;100.00
11440;BME280;5776;51.814;4.510;2023-07-31T07:52:48;100721.28;;;16.62;100.00
11440;BME280;5776;51.814;4.510;2023-07-31T07:55:17;100722.91;;;16.63;100.00
11440;BME280;5776;51.814;4.510;2023-07-31T07:57:45;100716.94;;;16.61;100.00
11440;BME280;5776;51.814;4.510;2023-07-31T08:00:12;100715.47;;;16.63;100.00
11440;BME280;5776;51.814;4.510;2023-07-31T08:02:38;100703.72;;;16.63;100.00
11440;BME280;5776;51.814;4.510;2023-07-31T08:05:04;100708.53;;;16.66;100.00
11440;BME280;5776;51.814;4.510;2023-07-31T08:07:34;100717.06;;;16.64;100.00
11440;BME280;5776;51.814;4.510;2023-07-31T08:10:01;100708.53;;;16.66;100.00
11440;BME280;5776;51.814;4.510;2023-07-31T08:12:27;100707.72;;;16.66;100.00
11440;BME280;5776;51.814;4.510;2023-07-31T08:14:57;100699.94;;;16.68;100.00
11440;BME280;5776;51.814;4.510;2023-07-31T08:17:22;100695.28;;;16.68;100.00
11440;BME280;5776;51.814;4.510;2023-07-31T08:19:49;100693.34;;;16.69;100.00
11440;BME280;5776;51.814;4.510;2023-07-31T08:22:14;100699.94;;;16.68;100.00
11440;BME280;5776;51.814;4.510;2023-07-31T08:24:40;100698.47;;;16.70;100.00
11440;BME280;5776;51.814;4.510;2023-07-31T08:27:07;100702.53;;;16.73;100.00
11440;BME280;5776;51.814;4.510;2023-07-31T08:29:33;100702.16;;;16.74;100.00
11440;BME280;5776;51.814;4.510;2023-07-31T08:31:58;100700.69;;;16.77;100.00
11440;BME280;5776;51.814;4.510;2023-07-31T08:34:28;100691.38;;;16.78;100.00
11440;BME280;5776;51.814;4.510;2023-07-31T08:36:54;100693.94;;;16.83;100.00
11440;BME280;5776;51.814;4.510;2023-07-31T08:39:23;100691.19;;;16.83;100.00
11440;BME280;5776;51.814;4.510;2023-07-31T08:41:48;100692.47;;;16.86;100.00
11440;BME280;5776;51.814;4.510;2023-07-31T08:44:21;100693.72;;;16.88;100.00
11440;BME280;5776;51.814;4.510;2023-07-31T08:46:47;100690.63;;;16.90;100.00
11440;BME280;5776;51.814;4.510;2023-07-31T08:49:13;100699.34;;;16.92;100.00
11440;BME280;5776;51.814;4.510;2023-07-31T08:51:40;100686.88;;;16.94;100.00
11440;BME280;5776;51.814;4.510;2023-07-31T08:54:06;100693.19;;;16.95;100.00
11440;BME280;5776;51.814;4.510;2023-07-31T08:56:32;100691.69;;;16.97;100.00
11440;BME280;5776;51.814;4.510;2023-07-31T08:59:02;100686.38;;;17.01;100.00
11440;BME280;5776;51.814;4.510;2023-07-31T09:01:29;100686.38;;;17.01;100.00
11440;BME280;5776;51.814;4.510;2023-07-31T09:03:57;100696.66;;;17.04;100.00
11440;BME280;5776;51.814;4.510;2023-07-31T09:06:25;100683.75;;;17.04;100.00
11440;BME280;5776;51.814;4.510;2023-07-31T09:08:55;100688.22;;;17.09;100.00
11440;BME280;5776;51.814;4.510;2023-07-31T09:11:21;100686.75;;;17.12;100.00
11440;BME280;5776;51.814;4.510;2023-07-31T09:13:48;100678.19;;;17.13;100.00
11440;BME280;5776;51.814;4.510;2023-07-31T09:16:15;100677.38;;;17.13;100.00
11440;BME280;5776;51.814;4.510;2023-07-31T09:18:54;100685.41;;;17.18;100.00
11440;BME280;5776;51.814;4.510;2023-07-31T09:21:25;100680.06;;;17.21;100.00
11440;BME280;5776;51.814;4.510;2023-07-31T09:23:53;100673.09;;;17.24;100.00
11440;BME280;5776;51.814;4.510;2023-07-31T09:26:36;100677.91;;;17.27;100.00
11440;BME280;5776;51.814;4.510;2023-07-31T09:29:07;100674.03;;;17.28;100.00
11440;BME280;5776;51.814;4.510;2023-07-31T09:31:43;100675.75;;;17.33;100.00
11440;BME280;5776;51.814;4.510;2023-07-31T09:34:11;100679.75;;;17.35;100.00
11440;BME280;5776;51.814;4.510;2023-07-31T09:36:48;100672.34;;;17.36;100.00
11440;BME280;5776;51.814;4.510;2023-07-31T09:39:16;100681.03;;;17.38;100.00
11440;BME280;5776;51.814;4.510;2023-07-31T09:41:48;100677.94;;;17.39;100.00
11440;BME280;5776;51.814;4.510;2023-07-31T09:44:18;100677.16;;;17.39;100.00
11440;BME280;5776;51.814;4.510;2023-07-31T09:46:47;100675.19;;;17.39;100.00
11440;BME280;5776;51.814;4.510;2023-07-31T09:49:14;100679.09;;;17.38;100.00
11440;BME280;5776;51.814;4.510;2023-07-31T09:51:41;100670.50;;;17.40;100.00
11440;BME280;5776;51.814;4.510;2023-07-31T09:54:12;100665.81;;;17.40;100.00
11440;BME280;5776;51.814;4.510;2023-07-31T09:56:42;100669.81;;;17.43;100.00
11440;BME280;5776;51.814;4.510;2023-07-31T09:59:14;100667.09;;;17.43;100.00
11440;BME280;5776;51.814;4.510;2023-07-31T10:01:42;100670.28;;;17.45;100.00
11440;BME280;5776;51.814;4.510;2023-07-31T10:04:10;100670.28;;;17.45;100.00
11440;BME280;5776;51.814;4.510;2023-07-31T10:06:37;100671.91;;;17.46;100.00
11440;BME280;5776;51.814;4.510;2023-07-31T10:09:09;100663.69;;;17.46;100.00
11440;BME280;5776;51.814;4.510;2023-07-31T10:11:46;100667.69;;;17.48;100.00
11440;BME280;5776;51.814;4.510;2023-07-31T10:14:20;100663.00;;;17.49;100.00
11440;BME280;5776;51.814;4.510;2023-07-31T10:16:47;100672.03;;;17.49;100.00
11440;BME280;5776;51.814;4.510;2023-07-31T10:19:12;100675.25;;;17.52;100.00
11440;BME280;5776;51.814;4.510;2023-07-31T10:21:40;100670.56;;;17.52;100.00
11440;BME280;5776;51.814;4.510;2023-07-31T10:24:08;100670.09;;;17.50;100.00
11440;BME280;5776;51.814;4.510;2023-07-31T10:26:35;100679.59;;;17.53;100.00
11440;BME280;5776;51.814;4.510;2023-07-31T10:29:04;100681.88;;;17.51;100.00
11440;BME280;5776;51.814;4.510;2023-07-31T10:31:31;100680.41;;;17.53;100.00
11440;BME280;5776;51.814;4.510;2023-07-31T10:33:58;100672.97;;;17.54;100.00
11440;BME280;5776;51.814;4.510;2023-07-31T10:36:26;100674.91;;;17.53;100.00
11440;BME280;5776;51.814;4.510;2023-07-31T10:38:52;100669.44;;;17.53;100.00
11440;BME280;5776;51.814;4.510;2023-07-31T10:41:29;100661.19;;;17.53;100.00
11440;BME280;5776;51.814;4.510;2023-07-31T10:43:59;100662.00;;;17.54;100.00
11440;BME280;5776;51.814;4.510;2023-07-31T10:46:30;100657.63;;;17.53;100.00
11440;BME280;5776;51.814;4.510;2023-07-31T10:49:01;100667.94;;;17.56;100.00
11440;BME280;5776;51.814;4.510;2023-07-31T10:51:35;100662.91;;;17.58;100.00
11440;BME280;5776;51.814;4.510;2023-07-31T10:54:16;100660.03;;;17.54;100.00
11440;BME280;5776;51.814;4.510;2023-07-31T10:56:50;100664.38;;;17.55;100.00
11440;BME280;5776;51.814;4.510;2023-07-31T10:59:15;100650.22;;;17.53;100.00
11440;BME280;5776;51.814;4.510;2023-07-31T11:01:54;100648.25;;;17.54;100.00
11440;BME280;5776;51.814;4.510;2023-07-31T11:04:26;100645.50;;;17.54;100.00
11440;BME280;5776;51.814;4.510;2023-07-31T11:06:57;100651.47;;;17.56;100.00
11440;BME280;5776;51.814;4.510;2023-07-31T11:09:27;100647.47;;;17.53;100.00
11440;BME280;5776;51.814;4.510;2023-07-31T11:11:55;100644.25;;;17.51;100.00
11440;BME280;5776;51.814;4.510;2023-07-31T11:14:22;100641.63;;;17.55;100.00
11440;BME280;5776;51.814;4.510;2023-07-31T11:16:51;100640.03;;;17.54;100.00
11440;BME280;5776;51.814;4.510;2023-07-31T11:19:24;100631.78;;;17.54;100.00
11440;BME280;5776;51.814;4.510;2023-07-31T11:21:51;100629.84;;;17.54;100.00
11440;BME280;5776;51.814;4.510;2023-07-31T11:24:17;100631.09;;;17.57;100.00
11440;BME280;5776;51.814;4.510;2023-07-31T11:26:53;100624.81;;;17.56;100.00
11440;BME280;5776;51.814;4.510;2023-07-31T11:29:19;100623.31;;;17.59;100.00
11440;BME280;5776;51.814;4.510;2023-07-31T11:31:47;100629.50;;;17.56;100.00
11440;BME280;5776;51.814;4.510;2023-07-31T11:34:15;100619.44;;;17.60;100.00
11440;BME280;5776;51.814;4.510;2023-07-31T11:36:52;100632.47;;;17.63;100.00
11440;BME280;5776;51.814;4.510;2023-07-31T11:39:18;100636.03;;;17.63;100.00
11440;BME280;5776;51.814;4.510;2023-07-31T11:41:44;100631.22;;;17.60;100.00
11440;BME280;5776;51.814;4.510;2023-07-31T11:44:10;100631.34;;;17.64;100.00
11440;BME280;5776;51.814;4.510;2023-07-31T11:46:36;100636.84;;;17.64;100.00
11440;BME280;5776;51.814;4.510;2023-07-31T11:49:03;100639.13;;;17.62;100.00
11440;BME280;5776;51.814;4.510;2023-07-31T11:51:29;100642.44;;;17.67;100.00
11440;BME280;5776;51.814;4.510;2023-07-31T11:54:00;100650.69;;;17.67;100.00
11440;BME280;5776;51.814;4.510;2023-07-31T11:56:27;100643.22;;;17.68;100.00
11440;BME280;5776;51.814;4.510;2023-07-31T11:58:58;100639.38;;;17.69;100.00
11440;BME280;5776;51.814;4.510;2023-07-31T12:01:26;100629.19;;;17.69;100.00
11440;BME280;5776;51.814;4.510;2023-07-31T12:03:53;100622.19;;;17.72;100.00
11440;BME280;5776;51.814;4.510;2023-07-31T12:06:19;100620.72;;;17.75;100.00
11440;BME280;5776;51.814;4.510;2023-07-31T12:08:47;100620.38;;;17.76;100.00
11440;BME280;5776;51.814;4.510;2023-07-31T12:11:13;100618.75;;;17.75;100.00
11440;BME280;5776;51.814;4.510;2023-07-31T12:13:43;100616.16;;;17.79;100.00
11440;BME280;5776;51.814;4.510;2023-07-31T12:16:09;100603.72;;;17.81;100.00
11440;BME280;5776;51.814;4.510;2023-07-31T12:18:37;100609.19;;;17.81;100.00
11440;BME280;5776;51.814;4.510;2023-07-31T12:21:05;100598.22;;;17.81;100.00
11440;BME280;5776;51.814;4.510;2023-07-31T12:23:32;100596.59;;;17.80;100.00
11440;BME280;5776;51.814;4.510;2023-07-31T12:26:12;100594.31;;;17.82;100.00
11440;BME280;5776;51.814;4.510;2023-07-31T12:28:45;100603.00;;;17.84;100.00
11440;BME280;5776;51.814;4.510;2023-07-31T12:31:13;100590.88;;;17.85;100.00
11440;BME280;5776;51.814;4.510;2023-07-31T12:33:40;100600.59;;;17.83;100.00
11440;BME280;5776;51.814;4.510;2023-07-31T12:36:12;100601.06;;;17.85;100.00
11440;BME280;5776;51.814;4.510;2023-07-31T12:38:38;100597.53;;;17.84;100.00
11440;BME280;5776;51.814;4.510;2023-07-31T12:41:04;100595.09;;;17.83;100.00
11440;BME280;5776;51.814;4.510;2023-07-31T12:43:32;100592.72;;;17.81;100.00
11440;BME280;5776;51.814;4.510;2023-07-31T12:45:58;100588.81;;;17.82;100.00
11440;BME280;5776;51.814;4.510;2023-07-31T12:48:24;100583.97;;;17.79;100.00
11440;BME280;5776;51.814;4.510;2023-07-31T12:50:50;100580.56;;;17.82;100.00
11440;BME280;5776;51.814;4.510;2023-07-31T12:53:16;100587.88;;;17.78;100.00
11440;BME280;5776;51.814;4.510;2023-07-31T12:55:43;100579.78;;;17.82;100.00